sensor_id;sensor_type;location;lat;lon;timestamp;P1;durP1;ratioP1;P2;durP2;ratioP2
7519;SDS011;3801;48.876;10.184;2024-01-10T00:00:15;27.97;;;13.07;;
7519;SDS011;3801;48.876;10.184;2024-01-10T00:05:20;22.85;;;13.30;;
7519;SDS011;3801;48.876;10.184;2024-01-10T00:10:25;19.17;;;9.63;;
7519;SDS011;3801;48.876;10.184;2024-01-10T00:15:28;19.37;;;9.23;;
7519;SDS011;3801;48.876;10.184;2024-01-10T00:20:32;19.23;;;10.80;;
7519;SDS011;3801;48.876;10.184;2024-01-10T00:25:38;19.50;;;11.00;;
7519;SDS011;3801;48.876;10.184;2024-01-10T00:30:41;19.80;;;9.60;;
7519;SDS011;3801;48.876;10.184;2024-01-10T00:35:45;19.00;;;10.52;;
7519;SDS011;3801;48.876;10.184;2024-01-10T00:40:51;20.70;;;11.83;;
7519;SDS011;3801;48.876;10.184;2024-01-10T00:45:55;22.97;;;11.97;;
7519;SDS011;3801;48.876;10.184;2024-01-10T00:50:58;22.30;;;11.03;;
7519;SDS011;3801;48.876;10.184;2024-01-10T00:56:03;18.23;;;8.33;;
7519;SDS011;3801;48.876;10.184;2024-01-10T01:01:07;18.75;;;10.45;;
7519;SDS011;3801;48.876;10.184;2024-01-10T01:06:11;18.85;;;11.75;;
7519;SDS011;3801;48.876;10.184;2024-01-10T01:11:16;26.23;;;13.40;;
7519;SDS011;3801;48.876;10.184;2024-01-10T01:16:19;40.78;;;17.50;;
7519;SDS011;3801;48.876;10.184;2024-01-10T01:21:23;41.77;;;15.30;;
7519;SDS011;3801;48.876;10.184;2024-01-10T01:26:28;21.70;;;12.32;;
7519;SDS011;3801;48.876;10.184;2024-01-10T01:31:31;19.53;;;11.20;;
7519;SDS011;3801;48.876;10.184;2024-01-10T01:36:35;21.33;;;10.50;;
7519;SDS011;3801;48.876;10.184;2024-01-10T01:41:40;18.35;;;11.02;;
7519;SDS011;3801;48.876;10.184;2024-01-10T01:46:43;15.67;;;8.77;;
7519;SDS011;3801;48.876;10.184;2024-01-10T01:51:48;20.90;;;8.63;;
7519;SDS011;3801;48.876;10.184;2024-01-10T01:56:53;15.50;;;9.13;;
7519;SDS011;3801;48.876;10.184;2024-01-10T02:01:56;18.17;;;10.85;;
7519;SDS011;3801;48.876;10.184;2024-01-10T02:07:02;18.10;;;9.43;;
7519;SDS011;3801;48.876;10.184;2024-01-10T02:12:07;21.90;;;10.40;;
7519;SDS011;3801;48.876;10.184;2024-01-10T02:17:11;14.27;;;7.97;;
7519;SDS011;3801;48.876;10.184;2024-01-10T02:22:15;20.50;;;11.25;;
7519;SDS011;3801;48.876;10.184;2024-01-10T02:27:20;18.13;;;11.00;;
7519;SDS011;3801;48.876;10.184;2024-01-10T02:32:23;17.53;;;9.67;;
7519;SDS011;3801;48.876;10.184;2024-01-10T02:37:27;19.88;;;11.38;;
7519;SDS011;3801;48.876;10.184;2024-01-10T02:42:31;18.53;;;9.27;;
7519;SDS011;3801;48.876;10.184;2024-01-10T02:47:35;19.35;;;11.13;;
7519;SDS011;3801;48.876;10.184;2024-01-10T02:52:39;18.03;;;10.83;;
7519;SDS011;3801;48.876;10.184;2024-01-10T02:57:44;19.87;;;11.20;;
7519;SDS011;3801;48.876;10.184;2024-01-10T03:02:48;18.57;;;9.10;;
7519;SDS011;3801;48.876;10.184;2024-01-10T03:07:52;18.93;;;9.20;;
7519;SDS011;3801;48.876;10.184;2024-01-10T03:12:56;21.38;;;12.38;;
7519;SDS011;3801;48.876;10.184;2024-01-10T03:18:01;19.40;;;12.07;;
7519;SDS011;3801;48.876;10.184;2024-01-10T03:23:05;19.20;;;10.33;;
7519;SDS011;3801;48.876;10.184;2024-01-10T03:28:10;19.15;;;11.98;;
7519;SDS011;3801;48.876;10.184;2024-01-10T03:33:13;18.33;;;10.20;;
7519;SDS011;3801;48.876;10.184;2024-01-10T03:38:17;18.67;;;9.13;;
7519;SDS011;3801;48.876;10.184;2024-01-10T03:43:23;21.70;;;12.93;;
7519;SDS011;3801;48.876;10.184;2024-01-10T03:48:27;16.83;;;10.03;;
7519;SDS011;3801;48.876;10.184;2024-01-10T03:53:30;21.70;;;11.43;;
7519;SDS011;3801;48.876;10.184;2024-01-10T03:58:35;18.93;;;10.33;;
7519;SDS011;3801;48.876;10.184;2024-01-10T04:03:38;21.50;;;11.40;;
7519;SDS011;3801;48.876;10.184;2024-01-10T04:08:44;21.63;;;12.73;;
7519;SDS011;3801;48.876;10.184;2024-01-10T04:13:49;18.70;;;10.67;;
7519;SDS011;3801;48.876;10.184;2024-01-10T04:18:52;20.77;;;10.00;;
7519;SDS011;3801;48.876;10.184;2024-01-10T04:23:56;27.17;;;14.90;;
7519;SDS011;3801;48.876;10.184;2024-01-10T04:29:01;33.50;;;17.10;;
7519;SDS011;3801;48.876;10.184;2024-01-10T04:34:04;21.87;;;12.03;;
7519;SDS011;3801;48.876;10.184;2024-01-10T04:39:08;16.97;;;9.83;;
7519;SDS011;3801;48.876;10.184;2024-01-10T04:44:14;17.77;;;9.73;;
7519;SDS011;3801;48.876;10.184;2024-01-10T04:49:17;20.97;;;10.43;;
7519;SDS011;3801;48.876;10.184;2024-01-10T04:54:21;19.33;;;10.07;;
7519;SDS011;3801;48.876;10.184;2024-01-10T04:59:26;23.45;;;13.60;;
7519;SDS011;3801;48.876;10.184;2024-01-10T05:04:29;22.85;;;12.98;;
7519;SDS011;3801;48.876;10.184;2024-01-10T05:09:33;21.80;;;11.20;;
7519;SDS011;3801;48.876;10.184;2024-01-10T05:14:38;23.90;;;11.17;;
7519;SDS011;3801;48.876;10.184;2024-01-10T05:19:42;21.87;;;12.53;;
7519;SDS011;3801;48.876;10.184;2024-01-10T05:24:48;42.70;;;19.67;;
7519;SDS011;3801;48.876;10.184;2024-01-10T05:29:53;31.47;;;14.43;;
7519;SDS011;3801;48.876;10.184;2024-01-10T05:34:56;51.40;;;21.77;;
7519;SDS011;3801;48.876;10.184;2024-01-10T05:40:00;45.83;;;19.37;;
7519;SDS011;3801;48.876;10.184;2024-01-10T05:45:05;34.60;;;14.93;;
7519;SDS011;3801;48.876;10.184;2024-01-10T05:50:09;29.00;;;12.90;;
7519;SDS011;3801;48.876;10.184;2024-01-10T05:55:13;27.93;;;13.63;;
7519;SDS011;3801;48.876;10.184;2024-01-10T06:00:19;59.17;;;24.20;;
7519;SDS011;3801;48.876;10.184;2024-01-10T06:05:24;24.90;;;13.70;;
7519;SDS011;3801;48.876;10.184;2024-01-10T06:10:27;24.77;;;12.27;;
7519;SDS011;3801;48.876;10.184;2024-01-10T06:15:34;42.13;;;20.60;;
7519;SDS011;3801;48.876;10.184;2024-01-10T06:20:37;25.07;;;13.50;;
7519;SDS011;3801;48.876;10.184;2024-01-10T06:25:42;26.87;;;13.97;;
7519;SDS011;3801;48.876;10.184;2024-01-10T06:30:47;24.37;;;13.27;;
7519;SDS011;3801;48.876;10.184;2024-01-10T06:35:50;31.13;;;15.17;;
7519;SDS011;3801;48.876;10.184;2024-01-10T06:40:56;27.23;;;14.33;;
7519;SDS011;3801;48.876;10.184;2024-01-10T06:46:01;26.67;;;14.07;;
7519;SDS011;3801;48.876;10.184;2024-01-10T06:51:09;28.60;;;14.87;;
7519;SDS011;3801;48.876;10.184;2024-01-10T06:56:12;32.53;;;12.83;;
7519;SDS011;3801;48.876;10.184;2024-01-10T07:01:17;32.97;;;15.13;;
7519;SDS011;3801;48.876;10.184;2024-01-10T07:06:24;33.43;;;15.40;;
7519;SDS011;3801;48.876;10.184;2024-01-10T07:11:28;54.47;;;22.17;;
7519;SDS011;3801;48.876;10.184;2024-01-10T07:16:34;28.10;;;16.30;;
7519;SDS011;3801;48.876;10.184;2024-01-10T07:21:39;28.67;;;14.30;;
7519;SDS011;3801;48.876;10.184;2024-01-10T07:26:42;30.60;;;15.77;;
7519;SDS011;3801;48.876;10.184;2024-01-10T07:31:48;31.33;;;16.13;;
7519;SDS011;3801;48.876;10.184;2024-01-10T07:36:55;26.00;;;13.03;;
7519;SDS011;3801;48.876;10.184;2024-01-10T07:41:59;28.00;;;13.47;;
7519;SDS011;3801;48.876;10.184;2024-01-10T07:47:06;25.23;;;14.27;;
7519;SDS011;3801;48.876;10.184;2024-01-10T07:52:10;29.77;;;16.13;;
7519;SDS011;3801;48.876;10.184;2024-01-10T07:57:13;30.43;;;16.63;;
7519;SDS011;3801;48.876;10.184;2024-01-10T08:02:22;28.23;;;15.20;;
7519;SDS011;3801;48.876;10.184;2024-01-10T08:07:25;28.80;;;14.20;;
7519;SDS011;3801;48.876;10.184;2024-01-10T08:12:29;32.70;;;15.93;;
7519;SDS011;3801;48.876;10.184;2024-01-10T08:17:34;31.60;;;15.67;;
7519;SDS011;3801;48.876;10.184;2024-01-10T08:22:40;34.70;;;16.43;;
7519;SDS011;3801;48.876;10.184;2024-01-10T08:27:46;36.40;;;17.40;;
7519;SDS011;3801;48.876;10.184;2024-01-10T08:32:52;27.20;;;15.33;;
7519;SDS011;3801;48.876;10.184;2024-01-10T08:37:55;34.83;;;19.10;;
7519;SDS011;3801;48.876;10.184;2024-01-10T08:43:00;26.23;;;15.10;;
7519;SDS011;3801;48.876;10.184;2024-01-10T08:48:06;29.23;;;15.47;;
7519;SDS011;3801;48.876;10.184;2024-01-10T08:53:12;29.10;;;16.87;;
7519;SDS011;3801;48.876;10.184;2024-01-10T08:58:16;24.80;;;13.10;;
7519;SDS011;3801;48.876;10.184;2024-01-10T09:03:22;31.00;;;16.63;;
7519;SDS011;3801;48.876;10.184;2024-01-10T09:08:26;30.65;;;18.00;;
7519;SDS011;3801;48.876;10.184;2024-01-10T09:13:30;30.55;;;17.95;;
7519;SDS011;3801;48.876;10.184;2024-01-10T09:18:35;28.17;;;13.53;;
7519;SDS011;3801;48.876;10.184;2024-01-10T09:23:39;31.48;;;19.80;;
7519;SDS011;3801;48.876;10.184;2024-01-10T09:28:43;21.87;;;11.97;;
7519;SDS011;3801;48.876;10.184;2024-01-10T09:33:48;25.10;;;13.47;;
7519;SDS011;3801;48.876;10.184;2024-01-10T09:38:52;30.70;;;16.33;;
7519;SDS011;3801;48.876;10.184;2024-01-10T09:43:56;33.37;;;17.37;;
7519;SDS011;3801;48.876;10.184;2024-01-10T09:49:01;28.57;;;16.40;;
7519;SDS011;3801;48.876;10.184;2024-01-10T09:54:05;30.23;;;16.53;;
7519;SDS011;3801;48.876;10.184;2024-01-10T09:59:09;31.40;;;16.23;;
7519;SDS011;3801;48.876;10.184;2024-01-10T10:04:16;21.40;;;10.60;;
7519;SDS011;3801;48.876;10.184;2024-01-10T10:09:22;33.23;;;15.67;;
7519;SDS011;3801;48.876;10.184;2024-01-10T10:14:28;25.90;;;15.60;;
7519;SDS011;3801;48.876;10.184;2024-01-10T10:19:36;33.20;;;17.87;;
7519;SDS011;3801;48.876;10.184;2024-01-10T10:24:42;40.07;;;19.33;;
7519;SDS011;3801;48.876;10.184;2024-01-10T10:29:51;25.87;;;15.67;;
7519;SDS011;3801;48.876;10.184;2024-01-10T10:34:57;36.03;;;17.37;;
7519;SDS011;3801;48.876;10.184;2024-01-10T10:40:01;26.67;;;15.70;;
7519;SDS011;3801;48.876;10.184;2024-01-10T10:45:07;30.97;;;16.03;;
7519;SDS011;3801;48.876;10.184;2024-01-10T10:50:15;30.60;;;17.37;;
7519;SDS011;3801;48.876;10.184;2024-01-10T10:55:22;30.37;;;16.70;;
7519;SDS011;3801;48.876;10.184;2024-01-10T11:00:27;27.80;;;16.27;;
7519;SDS011;3801;48.876;10.184;2024-01-10T11:05:34;27.13;;;14.50;;
7519;SDS011;3801;48.876;10.184;2024-01-10T11:10:39;32.23;;;16.40;;
7519;SDS011;3801;48.876;10.184;2024-01-10T11:15:54;31.27;;;16.53;;
7519;SDS011;3801;48.876;10.184;2024-01-10T11:21:11;27.60;;;15.70;;
7519;SDS011;3801;48.876;10.184;2024-01-10T11:26:18;29.03;;;17.03;;
7519;SDS011;3801;48.876;10.184;2024-01-10T11:31:29;31.23;;;17.23;;
7519;SDS011;3801;48.876;10.184;2024-01-10T11:36:35;25.57;;;13.73;;
7519;SDS011;3801;48.876;10.184;2024-01-10T11:41:38;24.20;;;14.33;;
7519;SDS011;3801;48.876;10.184;2024-01-10T11:46:43;22.20;;;13.73;;
7519;SDS011;3801;48.876;10.184;2024-01-10T11:51:50;27.17;;;16.07;;
7519;SDS011;3801;48.876;10.184;2024-01-10T11:56:55;28.27;;;15.33;;
7519;SDS011;3801;48.876;10.184;2024-01-10T12:02:00;26.67;;;15.37;;
7519;SDS011;3801;48.876;10.184;2024-01-10T12:07:07;32.00;;;16.73;;
7519;SDS011;3801;48.876;10.184;2024-01-10T12:12:12;27.57;;;15.50;;
7519;SDS011;3801;48.876;10.184;2024-01-10T12:17:16;31.23;;;18.50;;
7519;SDS011;3801;48.876;10.184;2024-01-10T12:22:22;35.63;;;21.80;;
7519;SDS011;3801;48.876;10.184;2024-01-10T12:27:26;31.03;;;18.70;;
7519;SDS011;3801;48.876;10.184;2024-01-10T12:32:31;37.30;;;17.67;;
7519;SDS011;3801;48.876;10.184;2024-01-10T12:37:36;31.33;;;19.10;;
7519;SDS011;3801;48.876;10.184;2024-01-10T12:42:40;28.73;;;17.10;;
7519;SDS011;3801;48.876;10.184;2024-01-10T12:47:44;27.07;;;16.20;;
7519;SDS011;3801;48.876;10.184;2024-01-10T12:52:49;31.83;;;17.67;;
7519;SDS011;3801;48.876;10.184;2024-01-10T12:57:57;30.57;;;17.93;;
7519;SDS011;3801;48.876;10.184;2024-01-10T13:03:06;31.07;;;18.27;;
7519;SDS011;3801;48.876;10.184;2024-01-10T13:08:11;34.63;;;19.10;;
7519;SDS011;3801;48.876;10.184;2024-01-10T13:13:16;31.90;;;18.37;;
7519;SDS011;3801;48.876;10.184;2024-01-10T13:18:19;34.57;;;20.50;;
7519;SDS011;3801;48.876;10.184;2024-01-10T13:23:25;39.77;;;20.17;;
7519;SDS011;3801;48.876;10.184;2024-01-10T13:28:29;35.20;;;19.80;;
7519;SDS011;3801;48.876;10.184;2024-01-10T13:33:33;33.87;;;20.00;;
7519;SDS011;3801;48.876;10.184;2024-01-10T13:38:47;33.83;;;19.83;;
7519;SDS011;3801;48.876;10.184;2024-01-10T13:43:51;34.47;;;20.20;;
7519;SDS011;3801;48.876;10.184;2024-01-10T13:48:55;36.67;;;19.80;;
7519;SDS011;3801;48.876;10.184;2024-01-10T13:54:01;36.03;;;19.77;;
7519;SDS011;3801;48.876;10.184;2024-01-10T13:59:05;34.23;;;19.23;;
7519;SDS011;3801;48.876;10.184;2024-01-10T14:04:08;35.43;;;20.83;;
7519;SDS011;3801;48.876;10.184;2024-01-10T14:09:13;36.17;;;19.87;;
7519;SDS011;3801;48.876;10.184;2024-01-10T14:14:17;43.20;;;21.70;;
7519;SDS011;3801;48.876;10.184;2024-01-10T14:19:25;39.63;;;20.83;;
7519;SDS011;3801;48.876;10.184;2024-01-10T14:24:30;38.37;;;20.77;;
7519;SDS011;3801;48.876;10.184;2024-01-10T14:29:34;40.23;;;21.10;;
7519;SDS011;3801;48.876;10.184;2024-01-10T14:34:39;40.67;;;22.03;;
7519;SDS011;3801;48.876;10.184;2024-01-10T14:39:45;41.90;;;21.77;;
7519;SDS011;3801;48.876;10.184;2024-01-10T14:44:49;47.77;;;24.50;;
7519;SDS011;3801;48.876;10.184;2024-01-10T14:49:53;42.73;;;21.63;;
7519;SDS011;3801;48.876;10.184;2024-01-10T14:55:01;44.43;;;22.43;;
7519;SDS011;3801;48.876;10.184;2024-01-10T15:00:07;40.63;;;22.33;;
7519;SDS011;3801;48.876;10.184;2024-01-10T15:05:12;53.03;;;24.27;;
7519;SDS011;3801;48.876;10.184;2024-01-10T15:10:17;48.37;;;24.60;;
7519;SDS011;3801;48.876;10.184;2024-01-10T15:15:21;46.53;;;23.83;;
7519;SDS011;3801;48.876;10.184;2024-01-10T15:20:25;40.37;;;21.87;;
7519;SDS011;3801;48.876;10.184;2024-01-10T15:25:31;49.10;;;26.27;;
7519;SDS011;3801;48.876;10.184;2024-01-10T15:30:36;41.73;;;21.43;;
7519;SDS011;3801;48.876;10.184;2024-01-10T15:35:48;44.77;;;22.93;;
7519;SDS011;3801;48.876;10.184;2024-01-10T15:40:53;41.33;;;20.73;;
7519;SDS011;3801;48.876;10.184;2024-01-10T15:45:59;51.23;;;24.23;;
7519;SDS011;3801;48.876;10.184;2024-01-10T15:51:03;42.87;;;23.53;;
7519;SDS011;3801;48.876;10.184;2024-01-10T15:56:08;50.23;;;22.43;;
7519;SDS011;3801;48.876;10.184;2024-01-10T16:01:14;47.20;;;23.47;;
7519;SDS011;3801;48.876;10.184;2024-01-10T16:06:20;46.40;;;22.30;;
7519;SDS011;3801;48.876;10.184;2024-01-10T16:11:29;56.53;;;29.50;;
7519;SDS011;3801;48.876;10.184;2024-01-10T16:16:33;47.70;;;25.23;;
7519;SDS011;3801;48.876;10.184;2024-01-10T16:21:37;56.03;;;32.95;;
7519;SDS011;3801;48.876;10.184;2024-01-10T16:26:43;55.07;;;25.83;;
7519;SDS011;3801;48.876;10.184;2024-01-10T17:05:46;59.17;;;30.17;;
7519;SDS011;3801;48.876;10.184;2024-01-10T17:10:51;56.53;;;28.17;;
7519;SDS011;3801;48.876;10.184;2024-01-10T17:15:54;48.93;;;27.47;;
7519;SDS011;3801;48.876;10.184;2024-01-10T17:21:00;44.13;;;24.00;;
7519;SDS011;3801;48.876;10.184;2024-01-10T17:26:04;47.23;;;23.80;;
7519;SDS011;3801;48.876;10.184;2024-01-10T17:31:07;45.93;;;22.37;;
7519;SDS011;3801;48.876;10.184;2024-01-10T17:36:12;50.57;;;24.83;;
7519;SDS011;3801;48.876;10.184;2024-01-10T17:41:15;46.57;;;23.47;;
7519;SDS011;3801;48.876;10.184;2024-01-10T17:46:20;62.03;;;29.47;;
7519;SDS011;3801;48.876;10.184;2024-01-10T17:51:24;217.10;;;80.33;;
7519;SDS011;3801;48.876;10.184;2024-01-10T17:56:29;56.73;;;27.37;;
7519;SDS011;3801;48.876;10.184;2024-01-10T18:01:33;46.53;;;23.53;;
7519;SDS011;3801;48.876;10.184;2024-01-10T18:06:39;50.10;;;24.07;;
7519;SDS011;3801;48.876;10.184;2024-01-10T18:11:42;59.53;;;33.22;;
7519;SDS011;3801;48.876;10.184;2024-01-10T18:16:46;50.93;;;22.03;;
7519;SDS011;3801;48.876;10.184;2024-01-10T18:21:52;42.50;;;20.10;;
7519;SDS011;3801;48.876;10.184;2024-01-10T18:26:55;46.13;;;23.50;;
7519;SDS011;3801;48.876;10.184;2024-01-10T18:31:59;68.90;;;31.57;;
7519;SDS011;3801;48.876;10.184;2024-01-10T18:37:05;66.63;;;33.57;;
7519;SDS011;3801;48.876;10.184;2024-01-10T18:42:10;58.77;;;27.40;;
7519;SDS011;3801;48.876;10.184;2024-01-10T18:47:18;46.57;;;22.77;;
7519;SDS011;3801;48.876;10.184;2024-01-10T18:52:27;53.53;;;24.60;;
7519;SDS011;3801;48.876;10.184;2024-01-10T18:57:31;88.37;;;41.20;;
7519;SDS011;3801;48.876;10.184;2024-01-10T19:02:34;48.30;;;21.87;;
7519;SDS011;3801;48.876;10.184;2024-01-10T19:07:42;48.07;;;22.60;;
7519;SDS011;3801;48.876;10.184;2024-01-10T19:12:48;47.83;;;23.37;;
7519;SDS011;3801;48.876;10.184;2024-01-10T19:17:52;44.10;;;23.50;;
7519;SDS011;3801;48.876;10.184;2024-01-10T19:22:57;43.80;;;23.07;;
7519;SDS011;3801;48.876;10.184;2024-01-10T19:28:06;54.40;;;28.10;;
7519;SDS011;3801;48.876;10.184;2024-01-10T19:33:12;48.73;;;22.77;;
7519;SDS011;3801;48.876;10.184;2024-01-10T19:38:16;42.53;;;22.33;;
7519;SDS011;3801;48.876;10.184;2024-01-10T19:43:22;52.23;;;25.47;;
7519;SDS011;3801;48.876;10.184;2024-01-10T19:48:26;60.53;;;34.50;;
7519;SDS011;3801;48.876;10.184;2024-01-10T19:53:37;59.53;;;26.93;;
7519;SDS011;3801;48.876;10.184;2024-01-10T19:58:41;44.97;;;24.53;;
7519;SDS011;3801;48.876;10.184;2024-01-10T20:03:44;50.63;;;23.23;;
7519;SDS011;3801;48.876;10.184;2024-01-10T20:08:49;90.70;;;31.27;;
7519;SDS011;3801;48.876;10.184;2024-01-10T20:14:00;47.27;;;23.67;;
7519;SDS011;3801;48.876;10.184;2024-01-10T20:19:04;48.40;;;22.87;;
7519;SDS011;3801;48.876;10.184;2024-01-10T20:24:10;65.95;;;37.13;;
7519;SDS011;3801;48.876;10.184;2024-01-10T20:29:18;119.90;;;49.70;;
7519;SDS011;3801;48.876;10.184;2024-01-10T20:34:28;61.55;;;35.78;;
7519;SDS011;3801;48.876;10.184;2024-01-10T20:39:34;94.80;;;44.70;;
7519;SDS011;3801;48.876;10.184;2024-01-10T20:44:40;102.67;;;57.23;;
7519;SDS011;3801;48.876;10.184;2024-01-10T20:49:46;50.10;;;24.47;;
7519;SDS011;3801;48.876;10.184;2024-01-10T20:54:52;60.80;;;35.20;;
7519;SDS011;3801;48.876;10.184;2024-01-10T20:59:55;57.30;;;31.47;;
7519;SDS011;3801;48.876;10.184;2024-01-10T21:05:08;46.13;;;22.53;;
7519;SDS011;3801;48.876;10.184;2024-01-10T21:10:13;42.37;;;21.27;;
7519;SDS011;3801;48.876;10.184;2024-01-10T21:15:17;44.23;;;20.87;;
7519;SDS011;3801;48.876;10.184;2024-01-10T21:20:20;57.47;;;31.30;;
7519;SDS011;3801;48.876;10.184;2024-01-10T21:25:25;52.85;;;29.00;;
7519;SDS011;3801;48.876;10.184;2024-01-10T21:30:29;67.47;;;34.47;;
7519;SDS011;3801;48.876;10.184;2024-01-10T21:35:34;42.17;;;22.93;;
7519;SDS011;3801;48.876;10.184;2024-01-10T21:40:38;45.83;;;22.07;;
7519;SDS011;3801;48.876;10.184;2024-01-10T21:45:43;48.73;;;25.67;;
7519;SDS011;3801;48.876;10.184;2024-01-10T21:50:46;90.67;;;37.80;;
7519;SDS011;3801;48.876;10.184;2024-01-10T21:55:51;59.20;;;27.30;;
7519;SDS011;3801;48.876;10.184;2024-01-10T22:00:54;55.37;;;27.87;;
7519;SDS011;3801;48.876;10.184;2024-01-10T22:06:00;44.10;;;21.13;;
7519;SDS011;3801;48.876;10.184;2024-01-10T22:11:05;51.40;;;30.50;;
7519;SDS011;3801;48.876;10.184;2024-01-10T22:16:09;46.47;;;23.90;;
7519;SDS011;3801;48.876;10.184;2024-01-10T22:21:12;39.63;;;21.23;;
7519;SDS011;3801;48.876;10.184;2024-01-10T22:26:17;60.37;;;26.20;;
7519;SDS011;3801;48.876;10.184;2024-01-10T22:31:20;46.90;;;21.67;;
7519;SDS011;3801;48.876;10.184;2024-01-10T22:36:24;64.38;;;35.75;;
7519;SDS011;3801;48.876;10.184;2024-01-10T22:41:28;50.33;;;25.00;;
7519;SDS011;3801;48.876;10.184;2024-01-10T22:46:32;47.90;;;24.50;;
7519;SDS011;3801;48.876;10.184;2024-01-10T22:51:36;42.00;;;21.53;;
7519;SDS011;3801;48.876;10.184;2024-01-10T22:56:41;40.33;;;21.23;;
7519;SDS011;3801;48.876;10.184;2024-01-10T23:01:46;40.33;;;20.47;;
7519;SDS011;3801;48.876;10.184;2024-01-10T23:06:49;56.45;;;33.10;;
7519;SDS011;3801;48.876;10.184;2024-01-10T23:11:55;50.47;;;25.73;;
7519;SDS011;3801;48.876;10.184;2024-01-10T23:16:58;42.37;;;23.83;;
7519;SDS011;3801;48.876;10.184;2024-01-10T23:22:01;46.33;;;23.00;;
7519;SDS011;3801;48.876;10.184;2024-01-10T23:27:07;31.40;;;19.33;;
7519;SDS011;3801;48.876;10.184;2024-01-10T23:32:10;33.00;;;17.03;;
7519;SDS011;3801;48.876;10.184;2024-01-10T23:37:14;50.13;;;27.92;;
7519;SDS011;3801;48.876;10.184;2024-01-10T23:42:19;46.45;;;27.75;;
7519;SDS011;3801;48.876;10.184;2024-01-10T23:47:22;41.53;;;22.73;;
7519;SDS011;3801;48.876;10.184;2024-01-10T23:52:26;46.23;;;25.67;;
7519;SDS011;3801;48.876;10.184;2024-01-10T23:57:31;47.20;;;27.05;;
